sensor_id;sensor_type;location;lat;lon;timestamp;pressure;altitude;pressure_sealevel;temperature;humidity
50867;BME280;36839;51.946;21.002;2023-07-20T00:01:06;99372.64;;;16.01;100.00
50867;BME280;36839;51.946;21.002;2023-07-20T00:03:33;99378.58;;;15.95;100.00
50867;BME280;36839;51.946;21.002;2023-07-20T00:06:00;99372.90;;;15.91;100.00
50867;BME280;36839;51.946;21.002;2023-07-20T00:08:29;99378.04;;;15.89;100.00
50867;BME280;36839;51.946;21.002;2023-07-20T00:11:01;99370.45;;;15.88;100.00
50867;BME280;36839;51.946;21.002;2023-07-20T00:13:28;99370.60;;;15.90;100.00
50867;BME280;36839;51.946;21.002;2023-07-20T00:15:56;99371.23;;;15.93;100.00
50867;BME280;36839;51.946;21.002;2023-07-20T00:18:24;99365.51;;;15.95;100.00
50867;BME280;36839;51.946;21.002;2023-07-20T00:20:53;99361.60;;;15.98;100.00
50867;BME280;36839;51.946;21.002;2023-07-20T00:23:26;99352.60;;;16.01;100.00
50867;BME280;36839;51.946;21.002;2023-07-20T00:25:58;99351.09;;;15.96;100.00
50867;BME280;36839;51.946;21.002;2023-07-20T00:28:34;99355.99;;;15.92;100.00
50867;BME280;36839;51.946;21.002;2023-07-20T00:31:01;99354.61;;;15.88;100.00
50867;BME280;36839;51.946;21.002;2023-07-20T00:33:30;99353.05;;;15.85;100.00
50867;BME280;36839;51.946;21.002;2023-07-20T00:35:57;99347.96;;;15.82;100.00
50867;BME280;36839;51.946;21.002;2023-07-20T00:38:26;99345.17;;;15.80;100.00
50867;BME280;36839;51.946;21.002;2023-07-20T00:40:54;99344.16;;;15.79;100.00
50867;BME280;36839;51.946;21.002;2023-07-20T00:43:30;99348.10;;;15.76;100.00
50867;BME280;36839;51.946;21.002;2023-07-20T00:46:01;99340.30;;;15.76;100.00
50867;BME280;36839;51.946;21.002;2023-07-20T00:48:36;99342.23;;;15.77;100.00
50867;BME280;36839;51.946;21.002;2023-07-20T00:51:13;99338.82;;;15.77;100.00
50867;BME280;36839;51.946;21.002;2023-07-20T00:53:49;99348.03;;;15.73;100.00
50867;BME280;36839;51.946;21.002;2023-07-20T00:56:29;99354.92;;;15.69;100.00
50867;BME280;36839;51.946;21.002;2023-07-20T00:58:59;99352.56;;;15.63;100.00
50867;BME280;36839;51.946;21.002;2023-07-20T01:01:26;99352.65;;;15.59;100.00
50867;BME280;36839;51.946;21.002;2023-07-20T01:03:53;99357.63;;;15.57;100.00
50867;BME280;36839;51.946;21.002;2023-07-20T01:06:33;99364.64;;;15.52;100.00
50867;BME280;36839;51.946;21.002;2023-07-20T01:09:13;99369.88;;;15.52;100.00
50867;BME280;36839;51.946;21.002;2023-07-20T01:12:43;99367.47;;;15.53;100.00
50867;BME280;36839;51.946;21.002;2023-07-20T01:14:57;99370.68;;;15.54;100.00
50867;BME280;36839;51.946;21.002;2023-07-20T01:17:24;99368.02;;;15.56;100.00
50867;BME280;36839;51.946;21.002;2023-07-20T01:19:52;99366.31;;;15.57;100.00
50867;BME280;36839;51.946;21.002;2023-07-20T01:28:37;99367.73;;;15.52;100.00
50867;BME280;36839;51.946;21.002;2023-07-20T01:31:27;99371.48;;;15.49;100.00
50867;BME280;36839;51.946;21.002;2023-07-20T01:34:00;99378.48;;;15.44;100.00
50867;BME280;36839;51.946;21.002;2023-07-20T01:36:33;99381.68;;;15.37;100.00
50867;BME280;36839;51.946;21.002;2023-07-20T01:39:03;99374.85;;;15.35;100.00
50867;BME280;36839;51.946;21.002;2023-07-20T01:41:33;99369.15;;;15.34;100.00
50867;BME280;36839;51.946;21.002;2023-07-20T01:44:18;99367.67;;;15.31;100.00
50867;BME280;36839;51.946;21.002;2023-07-20T01:46:55;99363.27;;;15.27;100.00
50867;BME280;36839;51.946;21.002;2023-07-20T01:49:23;99360.41;;;15.23;100.00
50867;BME280;36839;51.946;21.002;2023-07-20T01:51:50;99364.61;;;15.16;100.00
50867;BME280;36839;51.946;21.002;2023-07-20T01:54:18;99369.77;;;15.10;100.00
50867;BME280;36839;51.946;21.002;2023-07-20T01:56:55;99371.16;;;15.06;100.00
50867;BME280;36839;51.946;21.002;2023-07-20T01:59:23;99371.69;;;15.03;100.00
50867;BME280;36839;51.946;21.002;2023-07-20T02:01:53;99378.92;;;15.00;100.00
50867;BME280;36839;51.946;21.002;2023-07-20T02:04:20;99380.19;;;14.95;100.00
50867;BME280;36839;51.946;21.002;2023-07-20T02:06:49;99377.16;;;14.90;100.00
50867;BME280;36839;51.946;21.002;2023-07-20T02:09:19;99372.70;;;14.80;100.00
50867;BME280;36839;51.946;21.002;2023-07-20T02:11:46;99374.79;;;14.75;100.00
50867;BME280;36839;51.946;21.002;2023-07-20T02:14:14;99376.59;;;14.73;100.00
50867;BME280;36839;51.946;21.002;2023-07-20T02:16:57;99379.98;;;14.71;100.00
50867;BME280;36839;51.946;21.002;2023-07-20T02:19:29;99378.90;;;14.71;100.00
50867;BME280;36839;51.946;21.002;2023-07-20T02:22:00;99387.73;;;14.73;100.00
50867;BME280;36839;51.946;21.002;2023-07-20T02:24:28;99390.95;;;14.77;100.00
50867;BME280;36839;51.946;21.002;2023-07-20T02:26:55;99389.31;;;14.79;100.00
50867;BME280;36839;51.946;21.002;2023-07-20T02:29:22;99389.16;;;14.81;100.00
50867;BME280;36839;51.946;21.002;2023-07-20T02:31:55;99385.63;;;14.85;100.00
50867;BME280;36839;51.946;21.002;2023-07-20T02:34:26;99378.31;;;14.89;100.00
50867;BME280;36839;51.946;21.002;2023-07-20T02:36:54;99374.92;;;14.95;100.00
50867;BME280;36839;51.946;21.002;2023-07-20T02:39:28;99370.73;;;14.98;100.00
50867;BME280;36839;51.946;21.002;2023-07-20T02:41:57;99369.95;;;14.98;100.00
50867;BME280;36839;51.946;21.002;2023-07-20T02:44:26;99366.23;;;14.98;100.00
50867;BME280;36839;51.946;21.002;2023-07-20T02:47:03;99372.34;;;14.98;100.00
50867;BME280;36839;51.946;21.002;2023-07-20T02:49:31;99371.89;;;15.01;100.00
50867;BME280;36839;51.946;21.002;2023-07-20T02:51:59;99373.02;;;15.06;100.00
50867;BME280;36839;51.946;21.002;2023-07-20T02:54:28;99381.51;;;15.10;100.00
50867;BME280;36839;51.946;21.002;2023-07-20T02:57:04;99381.79;;;15.16;100.00
50867;BME280;36839;51.946;21.002;2023-07-20T03:03:47;99375.13;;;15.18;100.00
50867;BME280;36839;51.946;21.002;2023-07-20T03:06:56;99376.94;;;15.14;100.00
50867;BME280;36839;51.946;21.002;2023-07-20T03:09:23;99375.79;;;15.13;100.00
50867;BME280;36839;51.946;21.002;2023-07-20T03:11:51;99374.55;;;15.14;100.00
50867;BME280;36839;51.946;21.002;2023-07-20T03:14:18;99370.69;;;15.11;100.00
50867;BME280;36839;51.946;21.002;2023-07-20T03:16:48;99375.62;;;15.10;100.00
50867;BME280;36839;51.946;21.002;2023-07-20T03:19:15;99379.41;;;15.08;100.00
50867;BME280;36839;51.946;21.002;2023-07-20T03:21:43;99379.22;;;15.02;100.00
50867;BME280;36839;51.946;21.002;2023-07-20T03:24:20;99387.75;;;15.00;100.00
50867;BME280;36839;51.946;21.002;2023-07-20T03:26:51;99389.77;;;15.03;100.00
50867;BME280;36839;51.946;21.002;2023-07-20T03:29:20;99396.27;;;15.05;100.00
50867;BME280;36839;51.946;21.002;2023-07-20T03:31:51;99401.34;;;15.08;100.00
50867;BME280;36839;51.946;21.002;2023-07-20T03:34:18;99414.23;;;15.05;100.00
50867;BME280;36839;51.946;21.002;2023-07-20T03:36:45;99418.46;;;14.95;100.00
50867;BME280;36839;51.946;21.002;2023-07-20T03:39:11;99418.33;;;14.92;100.00
50867;BME280;36839;51.946;21.002;2023-07-20T03:41:38;99426.08;;;14.92;100.00
50867;BME280;36839;51.946;21.002;2023-07-20T03:44:10;99431.84;;;14.94;100.00
50867;BME280;36839;51.946;21.002;2023-07-20T03:46:37;99437.61;;;15.01;100.00
50867;BME280;36839;51.946;21.002;2023-07-20T03:49:05;99443.12;;;15.07;100.00
50867;BME280;36839;51.946;21.002;2023-07-20T03:51:32;99450.98;;;15.12;100.00
50867;BME280;36839;51.946;21.002;2023-07-20T03:54:02;99462.04;;;15.12;100.00
50867;BME280;36839;51.946;21.002;2023-07-20T03:56:29;99465.63;;;15.08;100.00
50867;BME280;36839;51.946;21.002;2023-07-20T03:59:00;99472.46;;;15.04;100.00
50867;BME280;36839;51.946;21.002;2023-07-20T04:01:27;99476.65;;;14.97;100.00
50867;BME280;36839;51.946;21.002;2023-07-20T04:03:55;99489.88;;;14.96;100.00
50867;BME280;36839;51.946;21.002;2023-07-20T04:06:24;99499.46;;;14.96;100.00
50867;BME280;36839;51.946;21.002;2023-07-20T04:08:56;99514.40;;;14.93;100.00
50867;BME280;36839;51.946;21.002;2023-07-20T04:11:29;99525.13;;;14.89;100.00
50867;BME280;36839;51.946;21.002;2023-07-20T04:14:00;99536.77;;;14.88;100.00
50867;BME280;36839;51.946;21.002;2023-07-20T04:16:28;99537.09;;;14.81;100.00
50867;BME280;36839;51.946;21.002;2023-07-20T04:18:55;99539.40;;;14.85;100.00
50867;BME280;36839;51.946;21.002;2023-07-20T04:21:23;99539.52;;;14.84;100.00
50867;BME280;36839;51.946;21.002;2023-07-20T04:23:53;99542.83;;;14.83;100.00
50867;BME280;36839;51.946;21.002;2023-07-20T04:26:20;99539.08;;;14.86;100.00
50867;BME280;36839;51.946;21.002;2023-07-20T04:28:48;99539.20;;;14.89;100.00
50867;BME280;36839;51.946;21.002;2023-07-20T04:31:19;99544.48;;;14.89;100.00
50867;BME280;36839;51.946;21.002;2023-07-20T04:33:47;99544.86;;;14.89;100.00
50867;BME280;36839;51.946;21.002;2023-07-20T04:36:14;99547.48;;;14.89;100.00
50867;BME280;36839;51.946;21.002;2023-07-20T04:38:43;99548.84;;;14.90;100.00
50867;BME280;36839;51.946;21.002;2023-07-20T04:41:10;99547.99;;;14.92;100.00
50867;BME280;36839;51.946;21.002;2023-07-20T04:43:42;99545.64;;;14.93;100.00
50867;BME280;36839;51.946;21.002;2023-07-20T04:46:10;99544.17;;;14.92;100.00
50867;BME280;36839;51.946;21.002;2023-07-20T04:48:37;99544.98;;;14.91;100.00
50867;BME280;36839;51.946;21.002;2023-07-20T04:51:04;99548.31;;;14.91;100.00
50867;BME280;36839;51.946;21.002;2023-07-20T04:53:32;99554.54;;;14.91;100.00
50867;BME280;36839;51.946;21.002;2023-07-20T04:55:59;99555.61;;;14.91;100.00
50867;BME280;36839;51.946;21.002;2023-07-20T04:58:26;99560.89;;;14.93;100.00
50867;BME280;36839;51.946;21.002;2023-07-20T05:00:52;99567.39;;;14.98;100.00
50867;BME280;36839;51.946;21.002;2023-07-20T05:03:20;99570.60;;;15.01;100.00
50867;BME280;36839;51.946;21.002;2023-07-20T05:05:48;99572.11;;;15.02;100.00
50867;BME280;36839;51.946;21.002;2023-07-20T05:08:15;99572.59;;;15.05;100.00
50867;BME280;36839;51.946;21.002;2023-07-20T05:10:43;99570.95;;;15.06;100.00
50867;BME280;36839;51.946;21.002;2023-07-20T05:13:09;99570.94;;;15.10;100.00
50867;BME280;36839;51.946;21.002;2023-07-20T05:15:36;99565.69;;;15.14;100.00
50867;BME280;36839;51.946;21.002;2023-07-20T05:18:02;99566.22;;;15.18;100.00
50867;BME280;36839;51.946;21.002;2023-07-20T05:20:30;99568.75;;;15.21;100.00
50867;BME280;36839;51.946;21.002;2023-07-20T05:22:58;99569.64;;;15.21;100.00
50867;BME280;36839;51.946;21.002;2023-07-20T05:25:25;99571.67;;;15.24;100.00
50867;BME280;36839;51.946;21.002;2023-07-20T05:27:52;99574.27;;;15.25;100.00
50867;BME280;36839;51.946;21.002;2023-07-20T05:30:18;99573.33;;;15.25;100.00
50867;BME280;36839;51.946;21.002;2023-07-20T05:32:46;99570.80;;;15.28;100.00
50867;BME280;36839;51.946;21.002;2023-07-20T05:35:27;99569.02;;;15.32;100.00
50867;BME280;36839;51.946;21.002;2023-07-20T05:37:54;99569.40;;;15.35;100.00
50867;BME280;36839;51.946;21.002;2023-07-20T05:40:22;99571.25;;;15.38;100.00
50867;BME280;36839;51.946;21.002;2023-07-20T05:42:53;99566.96;;;15.43;100.00
50867;BME280;36839;51.946;21.002;2023-07-20T05:45:27;99569.29;;;15.50;100.00
50867;BME280;36839;51.946;21.002;2023-07-20T05:47:58;99570.48;;;15.56;100.00
50867;BME280;36839;51.946;21.002;2023-07-20T05:50:28;99568.36;;;15.62;100.00
50867;BME280;36839;51.946;21.002;2023-07-20T05:53:01;99569.81;;;15.70;100.00
50867;BME280;36839;51.946;21.002;2023-07-20T05:55:29;99564.31;;;15.78;100.00
50867;BME280;36839;51.946;21.002;2023-07-20T05:57:56;99561.88;;;15.83;100.00
50867;BME280;36839;51.946;21.002;2023-07-20T06:00:25;99559.50;;;15.83;100.00
50867;BME280;36839;51.946;21.002;2023-07-20T06:02:56;99555.63;;;15.84;100.00
50867;BME280;36839;51.946;21.002;2023-07-20T06:05:26;99555.08;;;15.86;100.00
50867;BME280;36839;51.946;21.002;2023-07-20T06:07:54;99543.63;;;15.81;100.00
50867;BME280;36839;51.946;21.002;2023-07-20T06:10:23;99541.72;;;15.78;100.00
50867;BME280;36839;51.946;21.002;2023-07-20T06:12:56;99531.27;;;15.73;100.00
50867;BME280;36839;51.946;21.002;2023-07-20T06:15:27;99528.19;;;15.72;100.00
50867;BME280;36839;51.946;21.002;2023-07-20T06:17:56;99516.52;;;15.69;100.00
50867;BME280;36839;51.946;21.002;2023-07-20T06:20:26;99509.74;;;15.70;100.00
50867;BME280;36839;51.946;21.002;2023-07-20T06:23:00;99507.72;;;15.69;100.00
50867;BME280;36839;51.946;21.002;2023-07-20T06:25:26;99513.44;;;15.74;100.00
50867;BME280;36839;51.946;21.002;2023-07-20T06:27:55;99513.68;;;15.76;100.00
50867;BME280;36839;51.946;21.002;2023-07-20T06:30:25;99514.40;;;15.81;100.00
50867;BME280;36839;51.946;21.002;2023-07-20T06:32:53;99511.59;;;15.90;100.00
50867;BME280;36839;51.946;21.002;2023-07-20T06:35:21;99511.28;;;15.98;100.00
50867;BME280;36839;51.946;21.002;2023-07-20T06:37:48;99507.80;;;16.08;100.00
50867;BME280;36839;51.946;21.002;2023-07-20T06:40:17;99508.86;;;16.17;100.00
50867;BME280;36839;51.946;21.002;2023-07-20T06:42:51;99502.34;;;16.19;100.00
50867;BME280;36839;51.946;21.002;2023-07-20T06:45:18;99500.20;;;16.24;100.00
50867;BME280;36839;51.946;21.002;2023-07-20T06:47:44;99495.20;;;16.28;100.00
50867;BME280;36839;51.946;21.002;2023-07-20T06:50:10;99496.94;;;16.33;100.00
50867;BME280;36839;51.946;21.002;2023-07-20T06:52:41;99498.19;;;16.42;100.00
50867;BME280;36839;51.946;21.002;2023-07-20T06:55:11;99497.14;;;16.47;100.00
50867;BME280;36839;51.946;21.002;2023-07-20T06:57:42;99503.76;;;16.56;100.00
50867;BME280;36839;51.946;21.002;2023-07-20T07:00:09;99505.27;;;16.63;100.00
50867;BME280;36839;51.946;21.002;2023-07-20T07:02:36;99501.14;;;16.71;100.00
50867;BME280;36839;51.946;21.002;2023-07-20T07:05:05;99502.05;;;16.79;100.00
50867;BME280;36839;51.946;21.002;2023-07-20T07:07:32;99503.03;;;16.84;100.00
50867;BME280;36839;51.946;21.002;2023-07-20T07:10:00;99507.85;;;16.91;100.00
50867;BME280;36839;51.946;21.002;2023-07-20T07:12:34;99515.83;;;16.91;100.00
50867;BME280;36839;51.946;21.002;2023-07-20T07:15:03;99521.86;;;16.85;100.00
50867;BME280;36839;51.946;21.002;2023-07-20T07:17:33;99522.49;;;16.81;100.00
50867;BME280;36839;51.946;21.002;2023-07-20T07:20:06;99530.77;;;16.81;100.00
50867;BME280;36839;51.946;21.002;2023-07-20T07:22:36;99537.16;;;16.81;100.00
50867;BME280;36839;51.946;21.002;2023-07-20T07:25:02;99540.02;;;16.81;100.00
50867;BME280;36839;51.946;21.002;2023-07-20T07:27:32;99539.63;;;16.79;100.00
50867;BME280;36839;51.946;21.002;2023-07-20T07:30:05;99538.58;;;16.79;100.00
50867;BME280;36839;51.946;21.002;2023-07-20T07:32:33;99541.73;;;16.77;100.00
50867;BME280;36839;51.946;21.002;2023-07-20T07:35:02;99548.22;;;16.65;100.00
50867;BME280;36839;51.946;21.002;2023-07-20T07:37:31;99545.91;;;16.60;100.00
50867;BME280;36839;51.946;21.002;2023-07-20T07:40:02;99547.91;;;16.53;100.00
50867;BME280;36839;51.946;21.002;2023-07-20T07:42:32;99549.01;;;16.39;100.00
50867;BME280;36839;51.946;21.002;2023-07-20T07:45:03;99542.89;;;16.35;100.00
50867;BME280;36839;51.946;21.002;2023-07-20T07:47:35;99545.28;;;16.41;100.00
50867;BME280;36839;51.946;21.002;2023-07-20T07:50:02;99546.72;;;16.41;100.00
50867;BME280;36839;51.946;21.002;2023-07-20T07:52:28;99552.58;;;16.44;100.00
50867;BME280;36839;51.946;21.002;2023-07-20T07:54:55;99556.81;;;16.44;100.00
50867;BME280;36839;51.946;21.002;2023-07-20T07:57:25;99561.77;;;16.41;100.00
50867;BME280;36839;51.946;21.002;2023-07-20T07:59:52;99560.92;;;16.43;100.00
50867;BME280;36839;51.946;21.002;2023-07-20T08:02:26;99561.31;;;16.45;100.00
50867;BME280;36839;51.946;21.002;2023-07-20T08:04:53;99563.92;;;16.45;100.00
50867;BME280;36839;51.946;21.002;2023-07-20T08:07:23;99569.86;;;16.44;100.00
50867;BME280;36839;51.946;21.002;2023-07-20T08:09:51;99572.42;;;16.47;100.00
50867;BME280;36839;51.946;21.002;2023-07-20T08:12:22;99575.95;;;16.56;100.00
50867;BME280;36839;51.946;21.002;2023-07-20T08:14:49;99578.27;;;16.62;100.00
50867;BME280;36839;51.946;21.002;2023-07-20T08:17:15;99573.50;;;16.60;100.00
50867;BME280;36839;51.946;21.002;2023-07-20T08:19:41;99576.54;;;16.68;100.00
50867;BME280;36839;51.946;21.002;2023-07-20T08:22:10;99576.23;;;16.72;100.00
50867;BME280;36839;51.946;21.002;2023-07-20T08:24:42;99581.86;;;16.79;100.00
50867;BME280;36839;51.946;21.002;2023-07-20T08:27:09;99583.69;;;16.83;100.00
50867;BME280;36839;51.946;21.002;2023-07-20T08:29:37;99588.54;;;16.83;100.00
50867;BME280;36839;51.946;21.002;2023-07-20T08:32:05;99591.02;;;16.81;100.00
50867;BME280;36839;51.946;21.002;2023-07-20T08:34:35;99589.20;;;16.87;100.00
50867;BME280;36839;51.946;21.002;2023-07-20T08:37:02;99594.42;;;16.88;100.00
50867;BME280;36839;51.946;21.002;2023-07-20T08:39:29;99596.23;;;16.87;100.00
50867;BME280;36839;51.946;21.002;2023-07-20T08:41:59;99595.49;;;16.80;100.00
50867;BME280;36839;51.946;21.002;2023-07-20T08:44:42;99599.76;;;16.74;100.00
50867;BME280;36839;51.946;21.002;2023-07-20T08:47:16;99609.34;;;16.71;100.00
50867;BME280;36839;51.946;21.002;2023-07-20T08:49:48;99613.80;;;16.68;100.00
50867;BME280;36839;51.946;21.002;2023-07-20T08:52:18;99616.17;;;16.65;100.00
50867;BME280;36839;51.946;21.002;2023-07-20T08:54:48;99622.85;;;16.68;100.00
50867;BME280;36839;51.946;21.002;2023-07-20T08:57:15;99625.70;;;16.71;100.00
50867;BME280;36839;51.946;21.002;2023-07-20T08:59:44;99623.94;;;16.75;100.00
50867;BME280;36839;51.946;21.002;2023-07-20T09:02:15;99630.38;;;16.83;100.00
50867;BME280;36839;51.946;21.002;2023-07-20T09:04:45;99631.23;;;16.86;100.00
50867;BME280;36839;51.946;21.002;2023-07-20T09:07:21;99630.67;;;16.87;100.00
50867;BME280;36839;51.946;21.002;2023-07-20T09:09:57;99630.77;;;16.98;100.00
50867;BME280;36839;51.946;21.002;2023-07-20T09:12:25;99631.21;;;16.99;100.00
50867;BME280;36839;51.946;21.002;2023-07-20T09:14:51;99632.03;;;17.01;100.00
50867;BME280;36839;51.946;21.002;2023-07-20T09:17:19;99631.22;;;17.13;100.00
50867;BME280;36839;51.946;21.002;2023-07-20T09:19:47;99632.95;;;17.21;100.00
50867;BME280;36839;51.946;21.002;2023-07-20T09:22:19;99637.02;;;17.21;100.00
50867;BME280;36839;51.946;21.002;2023-07-20T09:24:55;99632.64;;;17.16;100.00
50867;BME280;36839;51.946;21.002;2023-07-20T09:27:34;99638.51;;;17.10;100.00
50867;BME280;36839;51.946;21.002;2023-07-20T09:30:04;99633.91;;;17.10;100.00
50867;BME280;36839;51.946;21.002;2023-07-20T09:32:45;99632.00;;;17.19;100.00
50867;BME280;36839;51.946;21.002;2023-07-20T09:35:16;99641.06;;;17.29;100.00
50867;BME280;36839;51.946;21.002;2023-07-20T09:37:52;99642.46;;;17.37;100.00
50867;BME280;36839;51.946;21.002;2023-07-20T09:40:21;99645.96;;;17.57;100.00
50867;BME280;36839;51.946;21.002;2023-07-20T09:42:52;99647.04;;;17.78;100.00
50867;BME280;36839;51.946;21.002;2023-07-20T09:45:43;99645.05;;;17.99;100.00
50867;BME280;36839;51.946;21.002;2023-07-20T09:48:14;99638.36;;;18.26;100.00
50867;BME280;36839;51.946;21.002;2023-07-20T09:50:42;99636.67;;;18.60;100.00
50867;BME280;36839;51.946;21.002;2023-07-20T09:53:12;99635.64;;;18.84;100.00
50867;BME280;36839;51.946;21.002;2023-07-20T09:55:44;99630.72;;;18.93;100.00
50867;BME280;36839;51.946;21.002;2023-07-20T09:58:11;99631.08;;;18.96;100.00
50867;BME280;36839;51.946;21.002;2023-07-20T10:00:39;99629.70;;;18.92;100.00
50867;BME280;36839;51.946;21.002;2023-07-20T10:03:06;99627.55;;;18.92;100.00
50867;BME280;36839;51.946;21.002;2023-07-20T10:05:33;99628.63;;;18.95;100.00
50867;BME280;36839;51.946;21.002;2023-07-20T10:08:02;99626.88;;;19.04;100.00
50867;BME280;36839;51.946;21.002;2023-07-20T10:10:41;99622.95;;;19.03;100.00
50867;BME280;36839;51.946;21.002;2023-07-20T10:13:21;99621.69;;;19.14;100.00
50867;BME280;36839;51.946;21.002;2023-07-20T10:16:01;99627.00;;;19.36;100.00
50867;BME280;36839;51.946;21.002;2023-07-20T10:19:05;99620.26;;;19.47;100.00
50867;BME280;36839;51.946;21.002;2023-07-20T10:21:41;99614.05;;;19.76;100.00
50867;BME280;36839;51.946;21.002;2023-07-20T10:26:14;99609.39;;;19.91;100.00
50867;BME280;36839;51.946;21.002;2023-07-20T10:28:43;99608.58;;;19.98;100.00
50867;BME280;36839;51.946;21.002;2023-07-20T10:31:13;99601.41;;;20.16;100.00
50867;BME280;36839;51.946;21.002;2023-07-20T10:33:43;99602.81;;;20.36;99.82
50867;BME280;36839;51.946;21.002;2023-07-20T10:36:20;99597.77;;;20.45;99.40
50867;BME280;36839;51.946;21.002;2023-07-20T10:38:56;99596.17;;;20.69;98.72
50867;BME280;36839;51.946;21.002;2023-07-20T10:41:35;99590.24;;;20.81;96.29
50867;BME280;36839;51.946;21.002;2023-07-20T10:44:03;99601.59;;;20.86;94.25
50867;BME280;36839;51.946;21.002;2023-07-20T10:49:09;99602.70;;;20.62;94.86
50867;BME280;36839;51.946;21.002;2023-07-20T10:51:41;99602.21;;;20.62;94.88
50867;BME280;36839;51.946;21.002;2023-07-20T10:56:49;99602.52;;;19.94;98.23
50867;BME280;36839;51.946;21.002;2023-07-20T11:02:06;99603.98;;;19.85;100.00
50867;BME280;36839;51.946;21.002;2023-07-20T11:04:40;99599.27;;;20.00;99.97
50867;BME280;36839;51.946;21.002;2023-07-20T11:07:09;99595.15;;;20.27;99.60
50867;BME280;36839;51.946;21.002;2023-07-20T11:09:40;99589.41;;;20.68;98.30
50867;BME280;36839;51.946;21.002;2023-07-20T11:12:17;99589.08;;;21.12;97.61
50867;BME280;36839;51.946;21.002;2023-07-20T11:15:00;99590.89;;;21.44;89.79
50867;BME280;36839;51.946;21.002;2023-07-20T11:17:33;99582.36;;;21.75;90.23
50867;BME280;36839;51.946;21.002;2023-07-20T11:20:11;99581.95;;;22.07;87.51
50867;BME280;36839;51.946;21.002;2023-07-20T11:22:40;99580.31;;;22.12;85.77
50867;BME280;36839;51.946;21.002;2023-07-20T11:25:10;99576.03;;;22.09;85.85
50867;BME280;36839;51.946;21.002;2023-07-20T11:27:45;99576.09;;;22.05;85.60
50867;BME280;36839;51.946;21.002;2023-07-20T11:30:18;99567.49;;;22.27;86.71
50867;BME280;36839;51.946;21.002;2023-07-20T11:33:03;99565.35;;;22.15;78.91
50867;BME280;36839;51.946;21.002;2023-07-20T11:35:46;99572.68;;;21.98;78.92
50867;BME280;36839;51.946;21.002;2023-07-20T11:38:14;99567.98;;;21.68;80.67
50867;BME280;36839;51.946;21.002;2023-07-20T11:40:43;99565.33;;;21.65;83.09
50867;BME280;36839;51.946;21.002;2023-07-20T11:43:11;99563.17;;;21.72;84.84
50867;BME280;36839;51.946;21.002;2023-07-20T11:45:45;99565.53;;;21.77;84.70
50867;BME280;36839;51.946;21.002;2023-07-20T11:48:16;99565.84;;;21.79;85.31
50867;BME280;36839;51.946;21.002;2023-07-20T11:50:46;99566.92;;;21.89;84.38
50867;BME280;36839;51.946;21.002;2023-07-20T11:53:14;99555.48;;;22.17;84.03
50867;BME280;36839;51.946;21.002;2023-07-20T11:55:45;99554.46;;;22.51;82.64
50867;BME280;36839;51.946;21.002;2023-07-20T11:58:15;99556.48;;;22.64;74.10
50867;BME280;36839;51.946;21.002;2023-07-20T12:00:51;99556.77;;;22.74;74.32
50867;BME280;36839;51.946;21.002;2023-07-20T12:03:20;99548.23;;;22.88;76.39
50867;BME280;36839;51.946;21.002;2023-07-20T12:05:47;99546.59;;;22.96;75.75
50867;BME280;36839;51.946;21.002;2023-07-20T12:08:13;99544.36;;;22.83;72.82
50867;BME280;36839;51.946;21.002;2023-07-20T12:10:41;99540.29;;;22.70;74.86
50867;BME280;36839;51.946;21.002;2023-07-20T12:13:19;99548.81;;;22.46;73.35
50867;BME280;36839;51.946;21.002;2023-07-20T12:16:06;99550.59;;;22.19;73.84
50867;BME280;36839;51.946;21.002;2023-07-20T12:18:37;99555.42;;;21.92;74.83
50867;BME280;36839;51.946;21.002;2023-07-20T12:21:07;99560.42;;;21.62;77.66
50867;BME280;36839;51.946;21.002;2023-07-20T12:23:45;99558.84;;;21.48;80.85
50867;BME280;36839;51.946;21.002;2023-07-20T12:26:17;99559.48;;;21.26;84.74
50867;BME280;36839;51.946;21.002;2023-07-20T12:28:57;99562.50;;;21.11;89.74
50867;BME280;36839;51.946;21.002;2023-07-20T12:31:36;99571.42;;;20.91;91.99
50867;BME280;36839;51.946;21.002;2023-07-20T12:34:12;99578.27;;;20.70;95.12
50867;BME280;36839;51.946;21.002;2023-07-20T12:36:46;99577.55;;;20.41;98.80
50867;BME280;36839;51.946;21.002;2023-07-20T12:39:26;99575.63;;;20.19;100.00
50867;BME280;36839;51.946;21.002;2023-07-20T12:44:05;99575.86;;;20.09;100.00
50867;BME280;36839;51.946;21.002;2023-07-20T12:46:42;99574.36;;;20.05;100.00
50867;BME280;36839;51.946;21.002;2023-07-20T12:49:09;99576.48;;;19.94;100.00
50867;BME280;36839;51.946;21.002;2023-07-20T12:51:45;99580.31;;;19.80;100.00
50867;BME280;36839;51.946;21.002;2023-07-20T12:54:24;99584.58;;;19.60;100.00
50867;BME280;36839;51.946;21.002;2023-07-20T12:57:05;99582.95;;;19.40;100.00
50867;BME280;36839;51.946;21.002;2023-07-20T12:59:46;99577.34;;;19.33;100.00
50867;BME280;36839;51.946;21.002;2023-07-20T13:02:24;99567.54;;;19.27;100.00
50867;BME280;36839;51.946;21.002;2023-07-20T13:05:01;99564.15;;;19.22;100.00
50867;BME280;36839;51.946;21.002;2023-07-20T13:07:39;99565.71;;;19.24;100.00
50867;BME280;36839;51.946;21.002;2023-07-20T13:10:07;99561.27;;;19.31;100.00
50867;BME280;36839;51.946;21.002;2023-07-20T13:12:52;99563.84;;;19.38;100.00
50867;BME280;36839;51.946;21.002;2023-07-20T13:15:41;99566.09;;;19.44;100.00
50867;BME280;36839;51.946;21.002;2023-07-20T13:18:11;99564.96;;;19.47;100.00
50867;BME280;36839;51.946;21.002;2023-07-20T13:20:52;99556.44;;;19.50;100.00
50867;BME280;36839;51.946;21.002;2023-07-20T13:23:36;99546.55;;;19.51;100.00